createdAt,value
2022-10-02T00:00:11.303Z,10.80
2022-10-02T00:02:42.906Z,10.80
2022-10-02T00:05:13.129Z,10.60
2022-10-02T00:07:45.589Z,10.70
2022-10-02T00:10:16.740Z,10.70
2022-10-02T00:12:44.478Z,10.70
2022-10-02T00:15:16.027Z,10.70
2022-10-02T00:17:44.828Z,10.70
2022-10-02T00:20:12.662Z,10.70
2022-10-02T00:22:39.328Z,10.70
2022-10-02T00:25:21.233Z,10.70
2022-10-02T00:28:00.030Z,10.60
2022-10-02T00:30:28.216Z,10.70
2022-10-02T00:33:04.133Z,10.70
2022-10-02T00:36:03.980Z,10.70
2022-10-02T00:38:36.780Z,10.70
2022-10-02T00:41:21.753Z,10.70
2022-10-02T00:44:07.172Z,10.60
2022-10-02T00:46:36.922Z,10.50
2022-10-02T00:49:16.165Z,10.50
2022-10-02T00:51:52.391Z,10.30
2022-10-02T00:54:19.039Z,10.30
2022-10-02T00:57:08.682Z,10.30
2022-10-02T00:59:41.272Z,10.30
2022-10-02T01:02:11.904Z,10.30
2022-10-02T01:04:39.221Z,10.30
2022-10-02T01:07:07.399Z,10.20
2022-10-02T01:09:34.313Z,10.20
2022-10-02T01:12:01.332Z,10.20
2022-10-02T01:14:34.875Z,10.20
2022-10-02T01:17:02.427Z,10.00
2022-10-02T01:19:32.312Z,10.00
2022-10-02T01:22:04.806Z,10.10
2022-10-02T01:24:43.808Z,10.10
2022-10-02T01:27:10.539Z,10.20
2022-10-02T01:29:37.291Z,10.20
2022-10-02T01:32:04.444Z,10.20
2022-10-02T01:34:31.305Z,10.20
2022-10-02T01:36:58.221Z,10.20
2022-10-02T01:39:26.467Z,10.20
2022-10-02T01:41:55.627Z,10.20
2022-10-02T01:44:22.945Z,10.20
2022-10-02T01:46:49.571Z,10.10
2022-10-02T01:49:27.413Z,10.00
2022-10-02T01:51:54.068Z,10.00
2022-10-02T01:54:29.931Z,10.00
2022-10-02T01:56:59.356Z,10.00
2022-10-02T01:59:44.945Z,10.00
2022-10-02T02:02:11.647Z,10.10
2022-10-02T02:05:17.043Z,10.10
2022-10-02T02:07:58.244Z,10.20
2022-10-02T02:10:38.286Z,10.00
2022-10-02T02:13:14.488Z,10.00
2022-10-02T02:15:41.132Z,10.00
2022-10-02T02:18:31.021Z,10.00
2022-10-02T02:21:02.825Z,10.00
2022-10-02T02:23:32.506Z,10.00
2022-10-02T02:26:04.101Z,10.00
2022-10-02T02:28:31.411Z,10.00
2022-10-02T02:30:58.993Z,10.00
2022-10-02T02:33:27.801Z,9.90
2022-10-02T02:35:56.250Z,10.00
2022-10-02T02:38:27.712Z,9.90
2022-10-02T02:40:57.094Z,9.90
2022-10-02T02:43:46.993Z,9.90
2022-10-02T02:46:25.680Z,9.90
2022-10-02T02:48:55.233Z,10.00
2022-10-02T02:51:23.825Z,10.00
2022-10-02T02:54:03.862Z,10.00
2022-10-02T02:56:32.417Z,9.90
2022-10-02T02:59:05.115Z,9.70
2022-10-02T03:01:31.840Z,9.70
2022-10-02T03:03:58.545Z,9.70
2022-10-02T03:06:39.050Z,9.60
2022-10-02T03:09:07.370Z,9.60
2022-10-02T03:11:53.975Z,9.60
2022-10-02T03:14:20.580Z,9.60
2022-10-02T03:16:55.767Z,9.60
2022-10-02T03:19:33.738Z,9.50
2022-10-02T03:22:00.372Z,9.50
2022-10-02T03:24:41.137Z,9.50
2022-10-02T03:27:10.388Z,9.50
2022-10-02T03:29:47.189Z,9.50
2022-10-02T03:32:15.341Z,9.50
2022-10-02T03:34:42.041Z,9.50
2022-10-02T03:37:08.819Z,9.50
2022-10-02T03:39:39.565Z,9.50
2022-10-02T03:42:06.207Z,9.50
2022-10-02T03:44:32.885Z,9.60
2022-10-02T03:46:59.559Z,9.50
2022-10-02T03:49:26.212Z,9.50
2022-10-02T03:51:52.926Z,9.40
2022-10-02T03:54:20.574Z,9.40
2022-10-02T03:56:54.927Z,9.40
2022-10-02T03:59:33.960Z,9.50
2022-10-02T04:02:02.165Z,9.50
2022-10-02T04:04:31.654Z,9.50
2022-10-02T04:07:06.330Z,9.30
2022-10-02T04:09:48.933Z,9.20
2022-10-02T04:12:19.767Z,9.20
2022-10-02T04:14:53.452Z,9.20
2022-10-02T04:17:26.218Z,9.20
2022-10-02T04:19:55.597Z,9.20
2022-10-02T04:22:31.830Z,9.20
2022-10-02T04:25:31.173Z,9.20
2022-10-02T04:27:57.945Z,9.20
2022-10-02T04:30:24.717Z,9.10
2022-10-02T04:32:51.567Z,9.00
2022-10-02T04:35:37.332Z,9.00
2022-10-02T04:38:22.751Z,9.00
2022-10-02T04:41:00.572Z,8.90
2022-10-02T04:43:46.076Z,8.90
2022-10-02T04:46:15.574Z,9.00
2022-10-02T04:48:54.698Z,9.00
2022-10-02T04:51:27.551Z,9.00
2022-10-02T04:54:06.194Z,9.00
2022-10-02T04:56:51.543Z,9.00
2022-10-02T04:59:28.039Z,9.00
2022-10-02T05:02:15.113Z,9.00
2022-10-02T05:04:41.831Z,9.00
2022-10-02T05:07:11.534Z,9.00
2022-10-02T05:09:53.445Z,9.00
2022-10-02T05:12:22.815Z,9.00
2022-10-02T05:15:04.960Z,8.90
2022-10-02T05:17:34.328Z,8.90
2022-10-02T05:20:13.603Z,8.90
2022-10-02T05:22:40.231Z,8.80
2022-10-02T05:25:09.659Z,8.80
2022-10-02T05:27:51.588Z,8.80
2022-10-02T05:30:18.958Z,8.80
2022-10-02T05:32:45.581Z,8.80
2022-10-02T05:35:19.374Z,8.80
2022-10-02T05:37:48.805Z,8.80
2022-10-02T05:40:33.749Z,8.80
2022-10-02T05:43:04.076Z,8.90
2022-10-02T05:45:30.760Z,8.90
2022-10-02T05:48:17.681Z,9.00
2022-10-02T05:50:46.253Z,8.80
2022-10-02T05:53:31.836Z,8.70
2022-10-02T05:56:05.084Z,8.70
2022-10-02T05:58:58.188Z,8.70
2022-10-02T06:01:30.407Z,8.80
2022-10-02T06:03:57.096Z,8.80
2022-10-02T06:06:23.770Z,8.90
2022-10-02T06:08:58.413Z,8.80
2022-10-02T06:11:30.910Z,8.90
2022-10-02T06:14:02.452Z,8.90
2022-10-02T06:16:52.403Z,9.00
2022-10-02T06:19:19.081Z,9.10
2022-10-02T06:22:05.718Z,9.20
2022-10-02T06:24:38.999Z,9.20
2022-10-02T06:27:11.372Z,9.30
2022-10-02T06:29:48.019Z,9.40
2022-10-02T06:32:23.539Z,9.40
2022-10-02T06:34:50.298Z,9.50
2022-10-02T06:37:36.018Z,9.60
2022-10-02T06:40:05.685Z,9.60
2022-10-02T06:42:35.205Z,9.70
2022-10-02T06:45:21.265Z,9.80
2022-10-02T06:48:05.844Z,9.90
2022-10-02T06:50:32.585Z,9.90
2022-10-02T06:53:18.307Z,10.20
2022-10-02T06:55:45.019Z,10.20
2022-10-02T06:58:14.786Z,10.30
2022-10-02T07:00:48.922Z,10.40
2022-10-02T07:03:19.945Z,10.50
2022-10-02T07:05:58.053Z,10.70
2022-10-02T07:08:27.378Z,10.90
2022-10-02T07:11:03.511Z,11.10
2022-10-02T07:13:30.236Z,11.20
2022-10-02T07:16:17.197Z,11.50
2022-10-02T07:18:55.904Z,11.80
2022-10-02T07:21:22.683Z,12.00
2022-10-02T07:24:02.209Z,12.20
2022-10-02T07:26:36.014Z,12.40
2022-10-02T07:29:15.201Z,12.60
2022-10-02T07:31:48.213Z,12.80
2022-10-02T07:34:25.799Z,13.10
2022-10-02T07:36:58.547Z,13.40
2022-10-02T07:39:31.451Z,13.60
2022-10-02T07:42:16.866Z,13.80
2022-10-02T07:45:02.258Z,14.00
2022-10-02T07:47:44.461Z,14.10
2022-10-02T07:50:11.434Z,14.30
2022-10-02T07:52:38.114Z,14.30
2022-10-02T07:55:24.188Z,14.50
2022-10-02T07:57:56.869Z,14.70
2022-10-02T08:00:27.417Z,15.00
2022-10-02T08:02:59.295Z,15.30
2022-10-02T08:05:38.397Z,15.40
2022-10-02T08:08:23.840Z,15.60
2022-10-02T08:10:56.072Z,15.80
2022-10-02T08:13:25.271Z,16.10
2022-10-02T08:15:54.300Z,16.40
2022-10-02T08:18:34.516Z,16.70
2022-10-02T08:21:02.886Z,16.80
2022-10-02T08:23:39.608Z,17.00
2022-10-02T08:26:18.444Z,17.20
2022-10-02T08:29:08.412Z,17.40
2022-10-02T08:31:35.126Z,17.60
2022-10-02T08:34:06.797Z,17.70
2022-10-02T08:36:52.098Z,17.90
2022-10-02T08:39:37.381Z,18.00
2022-10-02T08:42:07.117Z,18.10
2022-10-02T08:44:36.270Z,18.20
2022-10-02T08:47:28.869Z,18.50
2022-10-02T08:50:14.941Z,18.60
2022-10-02T08:52:44.557Z,18.70
2022-10-02T08:55:29.971Z,18.80
2022-10-02T08:57:59.593Z,19.00
2022-10-02T09:00:38.659Z,19.00
2022-10-02T09:03:25.189Z,19.00
2022-10-02T09:06:00.806Z,19.20
2022-10-02T09:08:33.516Z,19.20
2022-10-02T09:11:20.902Z,19.30
2022-10-02T09:13:56.475Z,19.30
2022-10-02T09:16:39.785Z,19.20
2022-10-02T09:19:21.844Z,19.30
2022-10-02T09:21:48.485Z,19.50
2022-10-02T09:24:15.129Z,19.50
2022-10-02T09:26:47.872Z,19.30
2022-10-02T09:29:14.534Z,19.50
2022-10-02T09:32:03.063Z,19.70
2022-10-02T09:34:48.435Z,19.90
2022-10-02T09:37:16.198Z,20.00
2022-10-02T09:40:01.720Z,19.90
2022-10-02T09:42:47.044Z,20.00
2022-10-02T09:45:22.781Z,20.10
2022-10-02T09:48:05.451Z,20.30
2022-10-02T09:50:51.642Z,20.40
2022-10-02T09:53:24.163Z,20.60
2022-10-02T09:56:20.467Z,20.70
2022-10-02T09:59:14.040Z,20.80
2022-10-02T10:01:40.919Z,21.00
2022-10-02T10:04:42.176Z,21.10
2022-10-02T10:07:34.099Z,21.00
2022-10-02T10:10:19.949Z,21.20
2022-10-02T10:12:55.990Z,21.20
2022-10-02T10:15:41.046Z,21.40
2022-10-02T10:18:17.313Z,21.30
2022-10-02T10:21:10.241Z,21.30
2022-10-02T10:23:50.506Z,21.40
2022-10-02T10:26:27.626Z,21.20
2022-10-02T10:29:12.976Z,21.40
2022-10-02T10:31:51.832Z,21.60
2022-10-02T10:34:21.280Z,21.70
2022-10-02T10:37:06.669Z,21.70
2022-10-02T10:39:48.660Z,21.90
2022-10-02T10:42:49.861Z,21.40
2022-10-02T10:45:23.981Z,21.60
2022-10-02T10:48:02.307Z,21.60
2022-10-02T10:50:35.780Z,21.80
2022-10-02T10:53:11.791Z,22.00
2022-10-02T10:55:43.561Z,22.00
2022-10-02T10:58:33.327Z,22.30
2022-10-02T11:01:13.586Z,22.20
2022-10-02T11:03:50.609Z,22.20
2022-10-02T11:06:36.307Z,22.50
2022-10-02T11:09:17.904Z,22.50
2022-10-02T11:11:50.751Z,22.70
2022-10-02T11:14:28.079Z,22.90
2022-10-02T11:16:57.449Z,22.70
2022-10-02T11:19:30.267Z,22.80
2022-10-02T11:22:09.821Z,22.90
2022-10-02T11:25:00.828Z,22.90
2022-10-02T11:27:36.344Z,22.90
2022-10-02T11:30:05.899Z,23.20
2022-10-02T11:32:51.271Z,23.20
2022-10-02T11:35:36.409Z,23.40
2022-10-02T11:38:15.151Z,23.70
2022-10-02T11:40:49.023Z,23.70
2022-10-02T11:43:27.570Z,23.80
2022-10-02T11:45:55.685Z,23.50
2022-10-02T11:48:22.529Z,23.30
2022-10-02T11:50:51.985Z,23.50
2022-10-02T11:53:37.390Z,23.70
2022-10-02T11:56:04.128Z,23.90
2022-10-02T11:58:57.095Z,24.00
2022-10-02T12:01:45.736Z,24.20
2022-10-02T12:04:18.740Z,24.30
2022-10-02T12:06:53.170Z,23.90
2022-10-02T12:09:19.862Z,23.80
2022-10-02T12:12:08.913Z,23.80
2022-10-02T12:14:38.545Z,24.00
2022-10-02T12:17:17.655Z,24.20
2022-10-02T12:20:09.192Z,24.20
2022-10-02T12:23:03.534Z,24.60
2022-10-02T12:25:56.112Z,24.40
2022-10-02T12:28:56.075Z,24.20
2022-10-02T12:31:29.038Z,24.60
2022-10-02T12:34:14.643Z,24.70
2022-10-02T12:36:41.362Z,24.70
2022-10-02T12:39:12.922Z,24.90
2022-10-02T12:42:03.768Z,24.80
2022-10-02T12:44:51.362Z,24.90
2022-10-02T12:47:29.161Z,24.90
2022-10-02T12:50:07.971Z,25.10
2022-10-02T12:52:40.692Z,25.20
2022-10-02T12:55:10.502Z,25.40
2022-10-02T12:57:53.275Z,25.50
2022-10-02T13:00:21.345Z,25.50
2022-10-02T13:03:05.641Z,25.30
2022-10-02T13:05:32.507Z,25.40
2022-10-02T13:08:11.613Z,25.70
2022-10-02T13:10:38.489Z,25.20
2022-10-02T13:13:17.505Z,25.00
2022-10-02T13:15:54.774Z,25.10
2022-10-02T13:18:43.751Z,25.40
2022-10-02T13:21:25.730Z,25.80
2022-10-02T13:24:01.259Z,26.20
2022-10-02T13:26:49.909Z,25.50
2022-10-02T13:29:19.483Z,25.40
2022-10-02T13:31:46.256Z,25.20
2022-10-02T13:34:51.549Z,25.50
2022-10-02T13:37:23.042Z,25.60
2022-10-02T13:39:58.825Z,25.90
2022-10-02T13:42:44.114Z,25.80
2022-10-02T13:45:34.501Z,25.10
2022-10-02T13:48:23.065Z,25.20
2022-10-02T13:51:02.248Z,25.10
2022-10-02T13:53:38.051Z,25.20
2022-10-02T13:56:20.995Z,25.40
2022-10-02T13:59:10.687Z,25.20
2022-10-02T14:01:49.804Z,24.90
2022-10-02T14:04:31.580Z,25.20
2022-10-02T14:07:24.744Z,25.20
2022-10-02T14:09:51.432Z,25.30
2022-10-02T14:12:29.711Z,25.50
2022-10-02T14:15:05.111Z,25.60
2022-10-02T14:17:31.894Z,25.50
2022-10-02T14:20:17.428Z,25.60
2022-10-02T14:22:55.033Z,25.50
2022-10-02T14:25:36.757Z,25.20
2022-10-02T14:28:19.222Z,25.30
2022-10-02T14:31:04.682Z,25.40
2022-10-02T14:33:50.287Z,25.40
2022-10-02T14:36:38.522Z,25.40
2022-10-02T14:39:08.070Z,25.30
2022-10-02T14:41:34.994Z,25.20
2022-10-02T14:44:10.843Z,25.00
2022-10-02T14:46:38.121Z,24.90
2022-10-02T14:49:08.709Z,24.90
2022-10-02T14:51:54.189Z,24.90
2022-10-02T14:54:41.862Z,24.90
2022-10-02T14:57:27.195Z,25.00
2022-10-02T15:00:01.772Z,25.10
2022-10-02T15:02:57.865Z,25.00
2022-10-02T15:05:39.634Z,25.00
2022-10-02T15:08:14.939Z,25.00
2022-10-02T15:10:42.412Z,25.00
2022-10-02T15:13:44.377Z,25.20
2022-10-02T15:16:29.645Z,25.00
2022-10-02T15:18:59.457Z,25.00
2022-10-02T15:21:38.036Z,25.00
2022-10-02T15:24:26.047Z,25.00
2022-10-02T15:27:10.853Z,25.00
2022-10-02T15:30:02.700Z,25.20
2022-10-02T15:32:41.349Z,25.60
2022-10-02T15:35:20.810Z,25.60
2022-10-02T15:38:23.691Z,25.70
2022-10-02T15:41:11.794Z,25.30
2022-10-02T15:43:44.358Z,25.10
2022-10-02T15:46:37.702Z,25.20
2022-10-02T15:49:12.529Z,25.20
2022-10-02T15:51:39.405Z,24.90
2022-10-02T15:54:11.987Z,24.90
2022-10-02T15:56:43.854Z,24.90
2022-10-02T15:59:37.429Z,24.90
2022-10-02T16:02:04.182Z,24.90
2022-10-02T16:04:44.109Z,24.70
2022-10-02T16:07:22.265Z,24.90
2022-10-02T16:10:11.596Z,25.00
2022-10-02T16:12:58.578Z,25.20
2022-10-02T16:15:27.226Z,25.20
2022-10-02T16:17:56.916Z,25.10
2022-10-02T16:20:23.787Z,25.20
2022-10-02T16:23:09.370Z,25.20
2022-10-02T16:25:42.325Z,25.20
2022-10-02T16:28:15.324Z,24.90
2022-10-02T16:30:45.907Z,24.60
2022-10-02T16:33:21.060Z,24.20
2022-10-02T16:35:53.791Z,24.10
2022-10-02T16:38:53.092Z,23.80
2022-10-02T16:41:29.038Z,23.60
2022-10-02T16:44:00.796Z,23.50
2022-10-02T16:46:44.929Z,23.50
2022-10-02T16:49:31.188Z,23.30
2022-10-02T16:52:04.611Z,23.00
2022-10-02T16:54:50.118Z,22.90
2022-10-02T16:57:19.638Z,22.60
2022-10-02T16:59:52.361Z,22.40
2022-10-02T17:02:22.383Z,22.30
2022-10-02T17:04:59.092Z,22.20
2022-10-02T17:07:47.431Z,22.10
2022-10-02T17:10:34.346Z,21.90
2022-10-02T17:13:11.649Z,21.70
2022-10-02T17:15:48.088Z,21.50
2022-10-02T17:18:24.219Z,21.40
2022-10-02T17:20:53.652Z,21.10
2022-10-02T17:23:38.999Z,20.80
2022-10-02T17:26:05.681Z,20.70
2022-10-02T17:28:37.755Z,20.60
2022-10-02T17:31:06.076Z,20.50
2022-10-02T17:33:46.853Z,20.30
2022-10-02T17:36:19.628Z,20.20
2022-10-02T17:39:09.389Z,20.10
2022-10-02T17:41:47.478Z,20.00
2022-10-02T17:44:22.684Z,19.90
2022-10-02T17:47:09.099Z,19.80
2022-10-02T17:49:41.674Z,19.60
2022-10-02T17:52:36.737Z,19.50
2022-10-02T17:55:22.103Z,19.30
2022-10-02T17:58:01.134Z,18.80
2022-10-02T18:00:31.170Z,18.70
2022-10-02T18:03:01.050Z,18.70
2022-10-02T18:05:45.322Z,18.60
2022-10-02T18:08:18.169Z,18.60
2022-10-02T18:10:46.361Z,18.50
2022-10-02T18:13:18.780Z,18.50
2022-10-02T18:16:05.420Z,18.30
2022-10-02T18:19:01.742Z,18.20
2022-10-02T18:21:37.904Z,18.10
2022-10-02T18:24:04.797Z,17.90
2022-10-02T18:26:31.448Z,17.80
2022-10-02T18:29:17.151Z,17.80
2022-10-02T18:31:55.668Z,17.70
2022-10-02T18:34:43.614Z,17.70
2022-10-02T18:37:18.718Z,17.70
2022-10-02T18:40:06.549Z,17.70
2022-10-02T18:42:44.151Z,17.50
2022-10-02T18:45:29.804Z,17.40
2022-10-02T18:48:00.278Z,17.40
2022-10-02T18:50:31.934Z,17.30
2022-10-02T18:53:05.235Z,17.10
2022-10-02T18:55:39.974Z,17.10
2022-10-02T18:58:20.224Z,17.00
2022-10-02T19:01:05.362Z,17.00
2022-10-02T19:03:50.931Z,16.90
2022-10-02T19:06:19.758Z,16.90
2022-10-02T19:09:01.674Z,16.80
2022-10-02T19:11:29.391Z,16.80
2022-10-02T19:13:56.253Z,16.70
2022-10-02T19:16:26.562Z,16.70
2022-10-02T19:19:12.080Z,16.70
2022-10-02T19:21:39.702Z,16.60
2022-10-02T19:24:15.250Z,16.60
2022-10-02T19:26:46.350Z,16.60
2022-10-02T19:29:28.822Z,16.60
2022-10-02T19:31:57.801Z,16.50
2022-10-02T19:34:25.783Z,16.50
2022-10-02T19:36:54.512Z,16.50
2022-10-02T19:39:25.369Z,16.40
2022-10-02T19:41:54.494Z,16.40
2022-10-02T19:44:42.084Z,16.30
2022-10-02T19:47:16.870Z,16.20
2022-10-02T19:49:46.739Z,16.20
2022-10-02T19:52:31.543Z,16.20
2022-10-02T19:54:59.106Z,16.20
2022-10-02T19:57:29.919Z,16.10
2022-10-02T19:59:56.647Z,16.10
2022-10-02T20:02:28.590Z,15.90
2022-10-02T20:04:58.787Z,15.70
2022-10-02T20:07:26.778Z,15.60
2022-10-02T20:09:56.069Z,15.60
2022-10-02T20:12:36.342Z,15.60
2022-10-02T20:15:10.178Z,15.50
2022-10-02T20:17:37.537Z,15.40
2022-10-02T20:20:07.932Z,15.40
2022-10-02T20:22:45.449Z,15.30
2022-10-02T20:25:27.693Z,15.40
2022-10-02T20:27:56.100Z,15.40
2022-10-02T20:30:24.004Z,15.50
2022-10-02T20:32:55.876Z,15.50
2022-10-02T20:35:35.083Z,15.50
2022-10-02T20:38:04.768Z,15.40
2022-10-02T20:40:33.745Z,15.40
2022-10-02T20:43:10.600Z,15.30
2022-10-02T20:45:44.959Z,15.20
2022-10-02T20:48:11.720Z,15.20
2022-10-02T20:50:41.584Z,15.10
2022-10-02T20:53:14.088Z,14.90
2022-10-02T20:55:43.850Z,14.90
2022-10-02T20:58:13.433Z,14.90
2022-10-02T21:00:50.759Z,14.90
2022-10-02T21:03:20.261Z,14.70
2022-10-02T21:05:48.655Z,14.60
2022-10-02T21:08:27.455Z,14.60
2022-10-02T21:11:00.240Z,14.70
2022-10-02T21:13:33.506Z,14.70
2022-10-02T21:16:22.927Z,14.70
2022-10-02T21:19:03.643Z,14.70
2022-10-02T21:21:36.101Z,14.70
2022-10-02T21:24:21.539Z,14.70
2022-10-02T21:27:07.459Z,14.70
2022-10-02T21:29:53.981Z,14.40
2022-10-02T21:32:24.843Z,14.50
2022-10-02T21:35:03.543Z,14.40
2022-10-02T21:37:37.187Z,14.30
2022-10-02T21:40:09.128Z,14.10
2022-10-02T21:42:47.701Z,14.10
2022-10-02T21:45:14.433Z,13.90
2022-10-02T21:48:04.555Z,13.90
2022-10-02T21:50:40.632Z,13.90
2022-10-02T21:53:25.692Z,13.70
2022-10-02T21:56:07.442Z,13.70
2022-10-02T21:58:49.145Z,13.40
2022-10-02T22:01:42.728Z,13.50
2022-10-02T22:04:19.241Z,13.50
2022-10-02T22:06:57.237Z,13.30
2022-10-02T22:09:26.683Z,13.30
2022-10-02T22:11:57.121Z,13.40
2022-10-02T22:14:56.784Z,13.40
2022-10-02T22:17:37.903Z,13.10
2022-10-02T22:20:23.086Z,13.10
2022-10-02T22:23:05.039Z,13.10
2022-10-02T22:25:47.073Z,13.10
2022-10-02T22:28:32.375Z,13.10
2022-10-02T22:30:59.149Z,13.10
2022-10-02T22:33:28.629Z,13.10
2022-10-02T22:36:13.673Z,13.10
2022-10-02T22:38:43.879Z,12.90
2022-10-02T22:41:19.684Z,12.90
2022-10-02T22:43:57.286Z,12.80
2022-10-02T22:46:26.868Z,12.70
2022-10-02T22:48:58.678Z,12.60
2022-10-02T22:51:25.315Z,12.60
2022-10-02T22:54:05.830Z,12.70
2022-10-02T22:56:44.771Z,12.80
2022-10-02T22:59:19.537Z,12.90
2022-10-02T23:01:53.276Z,12.90
2022-10-02T23:04:28.925Z,12.90
2022-10-02T23:07:06.354Z,12.80
2022-10-02T23:09:51.625Z,12.80
2022-10-02T23:12:25.415Z,12.30
2022-10-02T23:15:19.489Z,12.30
2022-10-02T23:17:51.414Z,12.30
2022-10-02T23:20:29.477Z,12.30
2022-10-02T23:22:59.893Z,12.40
2022-10-02T23:25:29.555Z,12.40
2022-10-02T23:28:01.153Z,12.50
2022-10-02T23:30:28.730Z,12.50
2022-10-02T23:33:00.372Z,12.50
2022-10-02T23:35:34.059Z,12.50
2022-10-02T23:38:04.708Z,12.60
2022-10-02T23:40:51.000Z,12.60
2022-10-02T23:43:30.039Z,12.60
2022-10-02T23:46:02.536Z,12.60
2022-10-02T23:48:30.173Z,12.50
2022-10-02T23:51:07.467Z,12.50
2022-10-02T23:53:36.918Z,12.50
2022-10-02T23:56:12.142Z,12.60
2022-10-02T23:58:49.671Z,12.50
